📊 Raw Sensor Data
Showing records 48726 to 48750 of 85,106 total
| ID | Distance (ft) | Battery V | Battery A | Int Temp (°F) | Int Humid (%) | Ext Temp (°F) | Solar V | RSSI | SNR | Time Stamp |
|---|---|---|---|---|---|---|---|---|---|---|
| 36393 | -- | 4.03 | 0 | 59 | 39 | 59 | 5.10 | -87 | 7 | 03/30/2025 12:00 PM |
| 36392 | -- | 4.03 | 0 | 58 | 39 | 57 | 5.10 | -82 | 9 | 03/30/2025 11:45 AM |
| 36391 | -- | 4.14 | 0 | 58 | 38 | 57 | 5.10 | -78 | 9 | 03/30/2025 11:30 AM |
| 36390 | -- | 4.03 | 0 | 57 | 39 | 56 | 5.10 | -87 | 8 | 03/30/2025 11:15 AM |
| 36389 | 15.2 | 4.03 | 0 | 56 | 39 | 55 | 5.10 | -82 | 8 | 03/30/2025 11:00 AM |
| 36388 | -- | 4.03 | 0 | 56 | 39 | 55 | 5.10 | -86 | 8 | 03/30/2025 10:45 AM |
| 36387 | -- | 4.03 | 0 | 55 | 39 | 55 | 5.10 | -91 | 7 | 03/30/2025 10:30 AM |
| 36386 | -- | 4.03 | 0 | 55 | 39 | 54 | 5.10 | -84 | 8 | 03/30/2025 10:15 AM |
| 36385 | -- | 4.11 | 0 | 54 | 39 | 54 | 5.10 | -84 | 8 | 03/30/2025 10:00 AM |
| 36384 | -- | 4.06 | 26 | 53 | 40 | 53 | 4.50 | -82 | 7 | 03/30/2025 09:45 AM |
| 36383 | -- | 4.04 | 19 | 52 | 40 | 53 | 4.50 | -80 | 8 | 03/30/2025 09:30 AM |
| 36382 | -- | 4.04 | 19 | 52 | 40 | 52 | 4.50 | -86 | 8 | 03/30/2025 09:15 AM |
| 36381 | -- | 4.05 | 24 | 52 | 40 | 53 | 4.50 | -86 | 7 | 03/30/2025 09:00 AM |
| 36380 | 15.2 | 4.03 | 12 | 52 | 39 | 52 | 4.50 | -94 | 7 | 03/30/2025 08:45 AM |
| 36379 | -- | 4.04 | 20 | 52 | 39 | 53 | 4.50 | -79 | 7 | 03/30/2025 08:30 AM |
| 36378 | -- | 4.04 | 0 | 51 | 39 | 52 | 4.50 | -77 | 9 | 03/30/2025 08:15 AM |
| 36377 | -- | 4.04 | -7 | 50 | 39 | 51 | 4.50 | -84 | 7 | 03/30/2025 08:00 AM |
| 36376 | -- | 4.01 | 0 | 49 | 40 | 50 | 4.50 | -85 | 8 | 03/30/2025 07:46 AM |
| 36375 | -- | 3.94 | -7 | 49 | 40 | 50 | 4.50 | -79 | 8 | 03/30/2025 07:30 AM |
| 36374 | -- | 3.93 | -32 | 48 | 40 | 49 | 4.40 | -80 | 8 | 03/30/2025 07:15 AM |
| 36373 | -- | 3.94 | -5 | 48 | 40 | 49 | 1.70 | -77 | 8 | 03/30/2025 07:00 AM |
| 36372 | -- | 4.00 | -5 | 48 | 40 | 49 | 0.40 | -78 | 8 | 03/30/2025 06:45 AM |
| 36371 | -- | 3.94 | -5 | 48 | 40 | 49 | 0.00 | -77 | 8 | 03/30/2025 06:30 AM |
| 36370 | -- | 3.94 | -5 | 48 | 40 | 49 | 0.00 | -80 | 7 | 03/30/2025 06:15 AM |
| 36369 | -- | 4.01 | -5 | 48 | 40 | 49 | 0.00 | -77 | 8 | 03/30/2025 06:00 AM |